Time;durP1;ratioP1;P1;durP2;ratioP2;P2;SDS_P1;SDS_P2;PMS_P1;PMS_P2;Temp;Humidity;BMP_temperature;BMP_pressure;BME280_temperature;BME280_humidity;BME280_pressure;Samples;Min_cycle;Max_cycle;Signal;HPM_P1;HPM_P2
2023/04/14 00:00:35;;;;;;;9.15;2.38;;;5.40;99.90;;;;;;5014629;28;20037;-72
2023/04/14 00:03:01;;;;;;;8.38;2.95;;;5.40;99.90;;;;;;5014705;28;20045;-72
2023/04/14 00:05:30;;;;;;;10.05;2.60;;;5.50;99.90;;;;;;5031919;28;20060;-72
2023/04/14 00:07:56;;;;;;;6.47;2.58;;;5.50;99.90;;;;;;5014466;28;20515;-73
2023/04/14 00:10:22;;;;;;;5.22;2.20;;;5.50;99.90;;;;;;5032427;28;20037;-72
2023/04/14 00:12:48;;;;;;;10.27;3.20;;;5.60;99.90;;;;;;5032170;28;20099;-72
2023/04/14 00:15:13;;;;;;;7.50;2.50;;;5.50;99.90;;;;;;5031985;28;20501;-73
2023/04/14 00:17:39;;;;;;;5.93;2.13;;;5.50;99.90;;;;;;5014395;28;20518;-73
2023/04/14 00:20:05;;;;;;;6.63;2.40;;;5.60;99.90;;;;;;5032071;28;20050;-73
2023/04/14 00:22:31;;;;;;;10.20;2.83;;;5.60;99.90;;;;;;5014475;28;20090;-72
2023/04/14 00:24:56;;;;;;;7.38;2.88;;;5.50;99.90;;;;;;4997831;28;20037;-72
2023/04/14 00:27:22;;;;;;;8.43;2.42;;;5.50;99.90;;;;;;5014377;28;20200;-72
2023/04/14 00:29:48;;;;;;;3.72;2.20;;;5.50;99.90;;;;;;5014208;28;20041;-72
2023/04/14 00:32:13;;;;;;;6.65;2.88;;;5.60;99.90;;;;;;5014125;28;20518;-72
2023/04/14 00:34:39;;;;;;;14.55;2.97;;;5.60;99.90;;;;;;5013971;28;20038;-72
2023/04/14 00:37:04;;;;;;;6.60;2.28;;;5.60;99.90;;;;;;5013918;28;20401;-72
2023/04/14 00:39:30;;;;;;;8.20;2.83;;;5.60;99.90;;;;;;5031965;28;20038;-72
2023/04/14 00:41:56;;;;;;;8.18;3.28;;;5.60;99.90;;;;;;5014092;28;20145;-72
2023/04/14 00:44:22;;;;;;;8.82;3.03;;;5.60;99.90;;;;;;5013769;28;20115;-73
2023/04/14 00:46:47;;;;;;;8.60;2.60;;;5.60;99.90;;;;;;5013861;28;20038;-73
2023/04/14 00:49:15;;;;;;;10.68;3.95;;;5.70;99.90;;;;;;5013796;28;20390;-72
2023/04/14 00:51:41;;;;;;;8.32;3.13;;;5.60;99.90;;;;;;5013916;28;20076;-72
2023/04/14 00:54:08;;;;;;;7.90;2.92;;;5.60;99.90;;;;;;5031494;28;20075;-73
2023/04/14 00:56:34;;;;;;;6.63;2.83;;;5.60;99.90;;;;;;5013735;28;20037;-72
2023/04/14 00:59:00;;;;;;;8.27;2.92;;;5.70;99.90;;;;;;5013982;28;20037;-72
2023/04/14 01:01:30;;;;;;;7.57;2.85;;;5.70;99.90;;;;;;5031634;28;20114;-73
2023/04/14 01:03:56;;;;;;;9.32;2.95;;;5.70;99.90;;;;;;5015256;28;20041;-72
2023/04/14 01:06:22;;;;;;;11.05;3.30;;;5.70;99.90;;;;;;5017952;28;20041;-72
2023/04/14 01:08:49;;;;;;;9.10;2.60;;;5.60;99.90;;;;;;5017866;28;20489;-73
2023/04/14 01:11:34;;;;;;;5.30;2.72;;;5.60;99.90;;;;;;5018057;28;20053;-73
2023/04/14 01:14:23;;;;;;;6.65;2.85;;;5.60;99.90;;;;;;5035531;28;20037;-72
2023/04/14 01:16:52;;;;;;;10.13;2.72;;;5.60;99.90;;;;;;5017663;28;20048;-72
2023/04/14 01:19:23;;;;;;;9.43;2.92;;;5.60;99.90;;;;;;5017982;28;20038;-72
2023/04/14 01:21:55;;;;;;;7.63;2.85;;;5.60;99.90;;;;;;5035301;28;20496;-72
2023/04/14 01:24:30;;;;;;;8.13;2.60;;;5.60;99.90;;;;;;5035133;28;20042;-72
2023/04/14 01:27:32;;;;;;;8.85;3.08;;;5.60;99.90;;;;;;5017238;28;20083;-72
2023/04/14 01:30:34;;;;;;;9.93;2.67;;;5.50;99.90;;;;;;5035172;28;20037;-72
2023/04/14 01:33:04;;;;;;;13.82;3.88;;;5.50;99.90;;;;;;5035076;28;20073;-72
2023/04/14 01:35:48;;;;;;;15.48;3.90;;;5.50;99.90;;;;;;5035129;28;20033;-72
2023/04/14 01:38:26;;;;;;;7.82;2.83;;;5.50;99.90;;;;;;5017241;28;20038;-72
2023/04/14 01:40:55;;;;;;;6.45;3.22;;;5.50;99.90;;;;;;5017578;28;20124;-72
2023/04/14 01:43:25;;;;;;;8.02;2.60;;;5.50;99.90;;;;;;5017041;28;20042;-72
2023/04/14 01:45:54;;;;;;;10.57;2.78;;;5.50;99.90;;;;;;5034921;28;20034;-72
2023/04/14 01:48:20;;;;;;;7.47;3.03;;;5.50;99.90;;;;;;5016949;28;20080;-73
2023/04/14 01:50:46;;;;;;;12.75;3.00;;;5.50;99.90;;;;;;5034864;28;20049;-72
2023/04/14 01:53:15;;;;;;;4.70;2.33;;;5.50;99.90;;;;;;5034839;28;20067;-72
2023/04/14 01:55:43;;;;;;;14.52;3.22;;;5.50;99.90;;;;;;5016789;28;20037;-72
2023/04/14 01:58:09;;;;;;;8.68;2.97;;;5.50;99.90;;;;;;5016843;28;20045;-72
2023/04/14 02:00:36;;;;;;;12.63;3.08;;;5.60;99.90;;;;;;5016892;28;20624;-72
2023/04/14 02:03:05;;;;;;;8.18;3.20;;;5.50;99.90;;;;;;5016826;28;20524;-72
2023/04/14 02:05:34;;;;;;;8.85;3.03;;;5.60;99.90;;;;;;5016788;28;20405;-72
2023/04/14 02:08:02;;;;;;;7.47;2.65;;;5.60;99.90;;;;;;5017273;28;20525;-72
2023/04/14 02:10:28;;;;;;;10.05;3.17;;;5.70;99.90;;;;;;5036614;28;20045;-72
2023/04/14 02:12:57;;;;;;;8.00;2.80;;;5.70;99.90;;;;;;5049730;28;20052;-72
2023/04/14 02:15:24;;;;;;;14.02;3.05;;;5.80;99.90;;;;;;5047952;28;20041;-72
2023/04/14 02:17:51;;;;;;;8.18;3.60;;;5.80;99.90;;;;;;5036507;28;20143;-73
2023/04/14 02:20:20;;;;;;;7.45;3.25;;;5.80;99.90;;;;;;5054443;28;20041;-72
2023/04/14 02:22:46;;;;;;;6.22;2.72;;;5.80;99.90;;;;;;5054136;28;20053;-72
2023/04/14 02:25:12;;;;;;;9.18;3.50;;;5.80;99.90;;;;;;5036666;28;20080;-72
2023/04/14 02:27:45;;;;;;;5.88;3.50;;;5.90;99.90;;;;;;5048943;28;20041;-73
2023/04/14 02:30:15;;;;;;;5.70;2.83;;;5.80;99.90;;;;;;5034853;28;20076;-72
2023/04/14 02:32:45;;;;;;;10.80;2.95;;;5.80;99.90;;;;;;5034004;28;20096;-72
2023/04/14 02:35:15;;;;;;;7.40;3.17;;;5.80;99.90;;;;;;5034073;28;20079;-72
2023/04/14 02:37:49;;;;;;;7.72;3.00;;;5.80;99.90;;;;;;5032889;28;20121;-73
2023/04/14 02:40:17;;;;;;;;;;;5.80;99.90;;;;;;5033206;28;20501;-72
2023/04/14 02:42:47;;;;;;;7.53;2.75;;;5.70;99.90;;;;;;5034061;28;19921;-72
2023/04/14 02:45:19;;;;;;;10.63;3.90;;;5.70;99.90;;;;;;5032439;28;20131;-73
2023/04/14 02:47:48;;;;;;;;;;;5.80;99.90;;;;;;5032951;28;20045;-73
2023/04/14 02:50:17;;;;;;;11.73;3.35;;;5.70;99.90;;;;;;5033767;28;19971;-72
2023/04/14 02:52:46;;;;;;;7.97;3.17;;;5.70;99.90;;;;;;5033653;28;20045;-72
2023/04/14 02:55:12;;;;;;;12.90;3.45;;;5.80;99.90;;;;;;5032178;28;20045;-72
2023/04/14 02:57:39;;;;;;;9.45;3.83;;;5.70;99.90;;;;;;5033435;28;20489;-72
2023/04/14 03:00:05;;;;;;;7.20;3.15;;;5.80;99.90;;;;;;5032339;28;20046;-73
2023/04/14 03:02:32;;;;;;;5.85;3.35;;;5.80;99.90;;;;;;5033534;28;20129;-72
2023/04/14 03:04:58;;;;;;;10.27;4.00;;;5.80;99.90;;;;;;5032140;28;20052;-72
2023/04/14 03:07:26;;;;;;;7.15;3.38;;;5.70;99.90;;;;;;5033452;28;20041;-72
2023/04/14 03:09:53;;;;;;;9.63;4.00;;;5.70;99.90;;;;;;5042762;28;20112;-72
2023/04/14 03:12:19;;;;;;;10.23;3.60;;;5.70;99.90;;;;;;5018807;28;20496;-72
2023/04/14 03:14:47;;;;;;;4.65;3.08;;;5.70;99.90;;;;;;5035187;28;20040;-72
2023/04/14 03:17:13;;;;;;;12.45;3.55;;;5.70;99.90;;;;;;5034971;28;20511;-72
2023/04/14 03:19:40;;;;;;;7.25;3.00;;;5.70;99.90;;;;;;5053181;28;20123;-72
2023/04/14 03:22:10;;;;;;;6.90;3.00;;;5.70;99.90;;;;;;5035283;28;20045;-72
2023/04/14 03:24:39;;;;;;;8.57;4.43;;;5.70;99.90;;;;;;5035042;28;20051;-72
2023/04/14 03:27:12;;;;;;;7.93;3.47;;;5.70;99.90;;;;;;5034299;28;20512;-73
2023/04/14 03:29:44;;;;;;;6.88;3.55;;;5.70;99.90;;;;;;5052965;28;20041;-73
2023/04/14 03:32:12;;;;;;;9.05;3.17;;;5.80;99.90;;;;;;5035022;28;20091;-72
2023/04/14 03:34:40;;;;;;;6.68;3.40;;;5.70;99.90;;;;;;5034637;28;20037;-72
2023/04/14 03:37:08;;;;;;;7.95;3.40;;;5.80;99.90;;;;;;5034488;28;20037;-72
2023/04/14 03:39:37;;;;;;;8.02;3.55;;;5.70;99.90;;;;;;5034551;28;20041;-72
2023/04/14 03:42:06;;;;;;;8.18;3.60;;;5.70;99.90;;;;;;5018178;28;20500;-72
2023/04/14 03:44:35;;;;;;;8.65;3.13;;;5.80;99.90;;;;;;5034644;28;20087;-72
2023/04/14 03:47:02;;;;;;;8.45;2.72;;;5.70;99.90;;;;;;5052340;28;20041;-72
2023/04/14 03:49:32;;;;;;;6.63;2.63;;;5.70;99.90;;;;;;5034779;28;20041;-72
2023/04/14 03:52:02;;;;;;;8.85;3.22;;;5.70;99.90;;;;;;5034495;28;20574;-72
2023/04/14 03:54:29;;;;;;;10.30;3.15;;;5.70;99.90;;;;;;5034432;28;20120;-73
2023/04/14 03:56:57;;;;;;;8.27;3.17;;;5.70;99.90;;;;;;5034410;28;20123;-72
2023/04/14 03:59:25;;;;;;;7.97;3.13;;;5.80;99.90;;;;;;5052354;28;20441;-72
2023/04/14 04:01:52;;;;;;;6.20;3.10;;;5.70;99.90;;;;;;5034443;28;20037;-73
2023/04/14 04:04:18;;;;;;;8.23;3.33;;;5.60;99.90;;;;;;5034338;28;20151;-73
2023/04/14 04:06:43;;;;;;;7.28;3.63;;;5.70;99.90;;;;;;5030786;28;20389;-73
2023/04/14 04:09:13;;;;;;;15.20;3.28;;;5.60;99.90;;;;;;5034384;28;20048;-72
2023/04/14 04:11:42;;;;;;;8.38;3.50;;;5.60;99.90;;;;;;5034455;28;20052;-73
2023/04/14 04:14:09;;;;;;;6.63;3.30;;;5.50;99.90;;;;;;5034122;28;20075;-73
2023/04/14 04:16:37;;;;;;;7.32;3.20;;;5.50;99.90;;;;;;5034040;28;20052;-73
2023/04/14 04:19:05;;;;;;;4.65;3.70;;;5.50;99.90;;;;;;5051963;28;20036;-72
2023/04/14 04:21:34;;;;;;;7.25;3.85;;;5.50;99.90;;;;;;5034091;28;20049;-73
2023/04/14 04:24:00;;;;;;;7.88;3.72;;;5.50;99.90;;;;;;5052056;28;20044;-72
2023/04/14 04:26:26;;;;;;;8.05;3.80;;;5.50;99.90;;;;;;5037999;28;20049;-73
2023/04/14 04:28:56;;;;;;;6.95;3.40;;;5.50;99.90;;;;;;5014279;28;20408;-73
2023/04/14 04:31:23;;;;;;;5.28;3.67;;;5.50;99.90;;;;;;5032045;28;20401;-72
2023/04/14 04:33:49;;;;;;;11.43;3.95;;;5.40;99.90;;;;;;5014469;28;20143;-72
2023/04/14 04:36:16;;;;;;;10.25;4.05;;;5.40;99.90;;;;;;5031542;28;20428;-72
2023/04/14 04:38:41;;;;;;;7.60;3.72;;;5.30;99.90;;;;;;5013147;28;20068;-72
2023/04/14 04:41:19;;;;;;;11.07;3.92;;;5.30;99.90;;;;;;5031869;28;20143;-72
2023/04/14 04:43:44;;;;;;;8.85;3.92;;;5.30;99.90;;;;;;5013990;28;20037;-72
2023/04/14 04:46:39;;;;;;;6.18;3.65;;;5.30;99.90;;;;;;5031266;28;20091;-73
2023/04/14 04:49:05;;;;;;;8.40;4.13;;;5.20;99.90;;;;;;5013865;28;20485;-73
2023/04/14 04:51:30;;;;;;;8.60;3.70;;;5.10;99.90;;;;;;5031693;28;20045;-72
2023/04/14 04:53:56;;;;;;;6.90;3.88;;;5.20;99.90;;;;;;5031570;28;20039;-72
2023/04/14 04:56:21;;;;;;;8.05;4.60;;;5.20;99.90;;;;;;5013758;28;20038;-73
2023/04/14 04:58:47;;;;;;;9.32;4.63;;;5.20;99.90;;;;;;5031538;28;20401;-72
2023/04/14 05:01:14;;;;;;;11.23;4.18;;;5.10;99.90;;;;;;5031460;28;20497;-73
2023/04/14 05:03:41;;;;;;;13.73;4.43;;;5.00;99.90;;;;;;5031794;28;20076;-72
2023/04/14 05:06:07;;;;;;;10.95;4.30;;;5.10;99.90;;;;;;5031437;28;20033;-72
2023/04/14 05:08:32;;;;;;;7.55;3.88;;;5.10;99.90;;;;;;5013613;28;20044;-72
2023/04/14 05:10:58;;;;;;;11.30;4.65;;;5.10;99.90;;;;;;5031563;28;20037;-73
2023/04/14 05:13:24;;;;;;;10.57;4.70;;;5.20;99.90;;;;;;5013749;28;20501;-75
2023/04/14 05:15:50;;;;;;;7.40;3.72;;;5.20;99.90;;;;;;5031081;28;20069;-73
2023/04/14 05:18:16;;;;;;;12.93;5.25;;;5.20;99.90;;;;;;5013699;28;20602;-73
2023/04/14 05:20:41;;;;;;;12.82;5.75;;;5.20;99.90;;;;;;5013684;28;20121;-71
2023/04/14 05:23:07;;;;;;;9.60;3.90;;;5.30;99.90;;;;;;5013576;28;20037;-72
2023/04/14 05:25:32;;;;;;;9.35;4.70;;;5.30;99.90;;;;;;5013404;28;20182;-72
2023/04/14 05:27:58;;;;;;;8.52;4.90;;;5.30;99.90;;;;;;5013695;28;20199;-72
2023/04/14 05:30:24;;;;;;;10.00;4.13;;;5.40;99.90;;;;;;5013901;28;20447;-72
2023/04/14 05:32:50;;;;;;;7.43;4.20;;;5.40;99.90;;;;;;5013468;28;20041;-73
2023/04/14 05:35:15;;;;;;;11.18;4.20;;;5.50;99.90;;;;;;5013557;28;20045;-72
2023/04/14 05:37:41;;;;;;;8.05;3.63;;;5.50;99.90;;;;;;5031243;28;20128;-72
2023/04/14 05:40:07;;;;;;;5.65;3.40;;;5.50;99.90;;;;;;5031485;28;20088;-72
2023/04/14 05:42:33;;;;;;;5.40;3.63;;;5.60;99.90;;;;;;5031388;28;20053;-72
2023/04/14 05:44:58;;;;;;;7.28;4.30;;;5.60;99.90;;;;;;5031279;28;20046;-72
2023/04/14 05:47:24;;;;;;;8.45;4.32;;;5.70;99.90;;;;;;5031140;28;20129;-73
2023/04/14 05:49:49;;;;;;;8.65;4.75;;;5.70;99.90;;;;;;5014754;28;20037;-72
2023/04/14 05:52:15;;;;;;;9.90;4.25;;;5.90;99.90;;;;;;5013871;28;20117;-72
2023/04/14 05:54:40;;;;;;;9.93;4.18;;;6.10;99.90;;;;;;5008504;28;20037;-72
2023/04/14 05:57:06;;;;;;;10.20;4.70;;;6.20;99.90;;;;;;5017142;28;20041;-72
2023/04/14 05:59:31;;;;;;;6.88;3.67;;;6.30;99.90;;;;;;5016871;28;20037;-72
2023/04/14 06:01:57;;;;;;;13.60;3.88;;;6.50;99.90;;;;;;5016359;28;20049;-75
2023/04/14 06:04:22;;;;;;;8.25;3.67;;;6.60;99.90;;;;;;5016729;28;20037;-72
2023/04/14 06:06:48;;;;;;;8.82;3.75;;;7.00;99.90;;;;;;5016581;28;20582;-72
2023/04/14 06:09:13;;;;;;;9.90;4.15;;;7.20;99.90;;;;;;5016541;28;20045;-72
2023/04/14 06:11:39;;;;;;;8.27;4.20;;;7.30;99.90;;;;;;5034427;28;20042;-72
2023/04/14 06:14:06;;;;;;;11.65;4.32;;;7.50;99.90;;;;;;5016275;28;20175;-72
2023/04/14 06:16:32;;;;;;;7.43;3.30;;;7.60;99.90;;;;;;5016351;28;20048;-73
2023/04/14 06:18:57;;;;;;;10.70;3.72;;;7.90;99.90;;;;;;5016276;28;20041;-73
2023/04/14 06:21:23;;;;;;;7.00;4.07;;;8.30;99.90;;;;;;5016446;28;20036;-73
2023/04/14 06:23:48;;;;;;;9.63;3.85;;;8.40;99.90;;;;;;5016586;28;20046;-71
2023/04/14 06:26:14;;;;;;;9.88;4.22;;;8.70;99.90;;;;;;5016476;28;20421;-72
2023/04/14 06:28:40;;;;;;;9.48;3.88;;;9.00;99.90;;;;;;5034090;28;20039;-73
2023/04/14 06:31:05;;;;;;;20.00;9.27;;;9.40;99.90;;;;;;5016306;28;20418;-72
2023/04/14 06:33:31;;;;;;;17.48;8.73;;;9.70;99.90;;;;;;5034153;28;20497;-72
2023/04/14 06:35:56;;;;;;;8.95;5.38;;;10.00;99.90;;;;;;5033933;28;20038;-73
2023/04/14 06:38:24;;;;;;;6.65;3.63;;;10.20;99.90;;;;;;5033897;28;20055;-72
2023/04/14 06:40:50;;;;;;;6.43;3.85;;;10.50;99.90;;;;;;4999992;28;20073;-72
2023/04/14 06:43:16;;;;;;;10.43;4.28;;;10.70;99.90;;;;;;5016140;28;20444;-73
2023/04/14 06:45:42;;;;;;;7.05;3.47;;;10.90;99.90;;;;;;5016056;28;20567;-71
2023/04/14 06:48:08;;;;;;;8.55;3.55;;;11.30;99.90;;;;;;5015792;28;20136;-73
2023/04/14 06:50:34;;;;;;;9.07;3.55;;;11.30;99.90;;;;;;5016328;28;20396;-72
2023/04/14 06:52:59;;;;;;;8.85;4.28;;;11.50;99.90;;;;;;5033600;28;20045;-72
2023/04/14 06:55:25;;;;;;;9.98;4.43;;;11.60;99.90;;;;;;5033556;28;20041;-72
2023/04/14 06:57:50;;;;;;;10.48;3.75;;;11.80;99.90;;;;;;5033558;28;20038;-71
2023/04/14 07:00:16;;;;;;;8.10;3.58;;;11.90;99.90;;;;;;5033515;28;20029;-72
2023/04/14 07:02:42;;;;;;;11.02;3.65;;;12.10;99.90;;;;;;5014663;28;20045;-72
2023/04/14 07:05:07;;;;;;;9.45;4.05;;;12.30;99.90;;;;;;5033233;28;20560;-72
2023/04/14 07:07:34;;;;;;;28.33;17.08;;;12.50;99.90;;;;;;5033146;28;20056;-71
2023/04/14 07:10:00;;;;;;;89.80;50.55;;;12.80;99.90;;;;;;5015586;28;20459;-70
2023/04/14 07:12:26;;;;;;;11.88;7.10;;;12.80;99.90;;;;;;5033230;28;20042;-70
2023/04/14 07:14:51;;;;;;;10.82;4.63;;;13.00;99.90;;;;;;5015408;28;20095;-72
2023/04/14 07:17:18;;;;;;;4.57;3.03;;;13.10;99.90;;;;;;5015330;28;20052;-72
2023/04/14 07:19:44;;;;;;;6.20;2.70;;;13.10;99.90;;;;;;5015321;28;20040;-71
2023/04/14 07:22:09;;;;;;;9.88;3.38;;;13.10;99.90;;;;;;5032906;28;20045;-71
2023/04/14 07:24:35;;;;;;;7.43;3.83;;;13.20;99.90;;;;;;5014961;28;20052;-71
2023/04/14 07:27:00;;;;;;;9.35;3.22;;;13.40;99.90;;;;;;5032703;28;20044;-71
2023/04/14 07:29:27;;;;;;;7.50;3.00;;;13.50;99.90;;;;;;5033274;28;20390;-73
2023/04/14 07:31:53;;;;;;;9.25;2.83;;;13.70;99.90;;;;;;4998992;28;20124;-72
2023/04/14 07:34:19;;;;;;;10.52;3.60;;;14.00;99.90;;;;;;5032871;28;20472;-72
2023/04/14 07:36:45;;;;;;;5.95;2.75;;;14.10;99.90;;;;;;5032754;28;20042;-72
2023/04/14 07:39:10;;;;;;;9.07;3.95;;;14.00;99.40;;;;;;5015097;28;20036;-72
2023/04/14 07:41:36;;;;;;;7.95;3.53;;;14.10;99.30;;;;;;5032769;28;20048;-71
2023/04/14 07:44:01;;;;;;;13.43;3.58;;;14.00;98.70;;;;;;5032855;28;20126;-72
2023/04/14 07:46:27;;;;;;;6.68;2.53;;;14.10;98.70;;;;;;5014749;28;20048;-71
2023/04/14 07:48:53;;;;;;;6.22;2.55;;;14.20;98.20;;;;;;5015011;28;20037;-71
2023/04/14 07:51:18;;;;;;;13.93;2.97;;;14.20;97.10;;;;;;5032517;28;20091;-72
2023/04/14 07:53:44;;;;;;;5.80;2.50;;;14.40;96.90;;;;;;5014864;28;20045;-72
2023/04/14 07:56:11;;;;;;;9.05;2.92;;;14.50;96.70;;;;;;5032221;28;20037;-71
2023/04/14 07:58:37;;;;;;;10.02;3.03;;;14.70;95.80;;;;;;5032605;28;20104;-72
2023/04/14 08:01:03;;;;;;;5.28;2.33;;;14.80;95.30;;;;;;5032671;28;20386;-72
2023/04/14 08:03:29;;;;;;;13.60;2.33;;;14.80;95.20;;;;;;5026282;28;20085;-71
2023/04/14 08:05:56;;;;;;;68.30;39.13;;;14.90;95.00;;;;;;5021912;28;20464;-74
2023/04/14 08:08:22;;;;;;;57.42;35.00;;;14.80;93.70;;;;;;5005251;28;20038;-72
2023/04/14 08:10:48;;;;;;;16.90;7.38;;;14.80;93.90;;;;;;5003215;28;20117;-73
2023/04/14 08:13:13;;;;;;;12.90;4.00;;;15.10;93.90;;;;;;5022066;28;20475;-72
2023/04/14 08:15:39;;;;;;;12.27;2.50;;;15.30;93.80;;;;;;5022363;28;20042;-72
2023/04/14 08:18:05;;;;;;;10.23;2.45;;;15.60;93.10;;;;;;5002901;28;20034;-73
2023/04/14 08:20:30;;;;;;;5.47;2.38;;;15.70;92.20;;;;;;5022516;28;20087;-71
2023/04/14 08:22:56;;;;;;;11.73;2.20;;;15.90;91.80;;;;;;5023745;28;20041;-72
2023/04/14 08:25:22;;;;;;;10.05;2.75;;;15.80;91.00;;;;;;5020849;28;20037;-72
2023/04/14 08:27:47;;;;;;;9.13;2.63;;;15.80;90.70;;;;;;5022785;28;20083;-72
2023/04/14 08:30:13;;;;;;;14.38;2.15;;;15.80;90.00;;;;;;5022123;28;20041;-72
2023/04/14 08:32:38;;;;;;;8.00;2.40;;;15.70;89.00;;;;;;5025168;28;20037;-72
2023/04/14 08:35:04;;;;;;;10.77;3.33;;;15.90;89.30;;;;;;5026728;28;20400;-72
2023/04/14 08:37:30;;;;;;;22.02;3.55;;;16.10;89.60;;;;;;5025589;28;20526;-72
2023/04/14 08:39:55;;;;;;;11.38;2.35;;;16.20;88.90;;;;;;5031558;28;20116;-73
2023/04/14 08:42:21;;;;;;;5.97;2.40;;;16.30;89.00;;;;;;5019374;28;20135;-72
2023/04/14 08:44:47;;;;;;;8.82;2.20;;;16.50;88.40;;;;;;5043331;28;20037;-73
2023/04/14 08:47:21;;;;;;;7.88;2.60;;;16.60;87.50;;;;;;5003219;28;20038;-73
2023/04/14 08:50:06;;;;;;;9.90;2.17;;;16.70;85.20;;;;;;5012032;28;20056;-72
2023/04/14 08:52:34;;;;;;;11.85;2.92;;;16.60;83.00;;;;;;5038042;28;20435;-73
2023/04/14 08:55:01;;;;;;;8.63;2.40;;;16.40;84.10;;;;;;5043010;28;20492;-72
2023/04/14 08:57:27;;;;;;;12.93;2.50;;;16.50;84.80;;;;;;5033521;28;20071;-72
2023/04/14 08:59:58;;;;;;;7.43;2.17;;;16.50;83.90;;;;;;5033343;28;20102;-73
2023/04/14 09:02:24;;;;;;;8.93;1.80;;;16.60;85.20;;;;;;5051433;28;20056;-72
2023/04/14 09:04:51;;;;;;;12.65;2.92;;;16.50;83.40;;;;;;5051331;28;20041;-72
2023/04/14 09:07:18;;;;;;;11.82;2.47;;;16.60;83.40;;;;;;5032945;28;20079;-72
2023/04/14 09:09:44;;;;;;;10.38;2.70;;;16.80;83.90;;;;;;5033657;28;20110;-72
2023/04/14 09:12:12;;;;;;;6.70;1.70;;;16.40;82.60;;;;;;5051023;28;20440;-71
2023/04/14 09:14:38;;;;;;;9.52;2.75;;;16.20;81.10;;;;;;5043061;28;20030;-72
2023/04/14 09:17:05;;;;;;;23.02;11.95;;;16.20;82.30;;;;;;5050263;28;20681;-72
2023/04/14 09:19:31;;;;;;;37.08;20.85;;;16.30;83.70;;;;;;5050985;28;20049;-72
2023/04/14 09:21:57;;;;;;;15.50;5.18;;;16.40;82.40;;;;;;5051016;28;20040;-73
2023/04/14 09:24:28;;;;;;;9.32;1.90;;;16.30;82.00;;;;;;5033822;28;20386;-72
2023/04/14 09:26:54;;;;;;;9.75;3.20;;;16.20;82.90;;;;;;5055093;28;20496;-73
2023/04/14 09:29:20;;;;;;;8.50;2.17;;;16.00;80.90;;;;;;5054998;28;20622;-72
2023/04/14 09:31:46;;;;;;;5.97;1.80;;;15.50;79.00;;;;;;5055091;28;20049;-71
2023/04/14 09:34:19;;;;;;;8.18;1.90;;;15.60;79.00;;;;;;5054810;28;20072;-71
2023/04/14 09:37:04;;;;;;;6.72;1.92;;;15.40;78.30;;;;;;5033508;28;20123;-71
2023/04/14 09:39:34;;;;;;;5.40;1.73;;;15.10;77.30;;;;;;5020655;28;20056;-72
2023/04/14 09:42:00;;;;;;;6.93;1.85;;;15.10;78.60;;;;;;5054889;28;20051;-72
2023/04/14 09:44:26;;;;;;;10.75;2.10;;;15.10;78.30;;;;;;5028407;28;20501;-72
2023/04/14 09:47:00;;;;;;;6.50;2.13;;;14.70;76.90;;;;;;5025204;28;20044;-72
2023/04/14 09:49:26;;;;;;;5.82;1.98;;;14.70;76.60;;;;;;5024994;28;20037;-72
2023/04/14 09:51:54;;;;;;;9.18;2.60;;;14.60;76.60;;;;;;5016990;28;20051;-72
2023/04/14 09:54:26;;;;;;;6.80;1.70;;;14.60;77.60;;;;;;5031237;28;20390;-72
2023/04/14 09:56:53;;;;;;;6.75;2.13;;;14.50;78.10;;;;;;5016731;28;20042;-72
2023/04/14 09:59:36;;;;;;;10.00;2.28;;;14.60;78.90;;;;;;5016685;28;20033;-73
2023/04/14 10:02:03;;;;;;;;;;;14.80;80.10;;;;;;5017138;28;20046;-73
2023/04/14 10:04:29;;;;;;;7.15;1.55;;;14.90;81.30;;;;;;5022106;28;19925;-73
2023/04/14 10:06:56;;;;;;;6.80;2.05;;;14.80;79.30;;;;;;4996928;28;20222;-73
2023/04/14 10:09:22;;;;;;;8.50;2.25;;;14.70;77.70;;;;;;5001910;28;20505;-72
2023/04/14 10:12:07;;;;;;;11.02;2.92;;;14.60;77.90;;;;;;5014658;28;20060;-72
2023/04/14 10:14:33;;;;;;;7.07;1.90;;;14.40;77.30;;;;;;5002252;28;20040;-72
2023/04/14 10:17:01;;;;;;;12.70;2.47;;;14.30;78.30;;;;;;5014461;28;20212;-72
2023/04/14 10:19:27;;;;;;;7.15;2.47;;;14.40;79.30;;;;;;4997083;28;20046;-72
2023/04/14 10:21:53;;;;;;;8.27;2.85;;;14.40;79.60;;;;;;5014837;28;20037;-72
2023/04/14 10:24:23;;;;;;;11.25;2.40;;;14.50;80.10;;;;;;4996631;28;20064;-72
2023/04/14 10:26:49;;;;;;;7.28;2.40;;;14.60;81.30;;;;;;4999434;28;20045;-72
2023/04/14 10:29:15;;;;;;;6.90;2.72;;;14.70;81.50;;;;;;5013846;28;20172;-72
2023/04/14 10:31:44;;;;;;;6.80;3.28;;;14.70;81.80;;;;;;5014141;28;20592;-72
2023/04/14 10:34:11;;;;;;;9.95;3.47;;;14.70;81.50;;;;;;5014240;28;20045;-72
2023/04/14 10:36:37;;;;;;;5.70;2.42;;;14.70;81.00;;;;;;4995383;28;20038;-72
2023/04/14 10:39:04;;;;;;;6.80;2.22;;;14.70;81.40;;;;;;4996479;28;20041;-72
2023/04/14 10:41:50;;;;;;;8.93;2.83;;;14.50;80.00;;;;;;4996523;28;20053;-71
2023/04/14 10:44:36;;;;;;;7.47;3.72;;;14.60;81.40;;;;;;4996426;28;20537;-72
2023/04/14 10:47:03;;;;;;;7.75;3.47;;;14.50;80.40;;;;;;5013444;28;20052;-72
2023/04/14 10:49:37;;;;;;;61.55;31.98;;;14.60;81.80;;;;;;5014354;28;20060;-71
2023/04/14 10:52:26;;;;;;;14.07;6.90;;;14.60;82.40;;;;;;4996367;28;20041;-72
2023/04/14 10:55:01;;;;;;;11.80;5.05;;;14.70;83.30;;;;;;4992521;28;20053;-72
2023/04/14 10:57:28;;;;;;;6.65;3.35;;;14.90;84.40;;;;;;5013613;28;20084;-72
2023/04/14 10:59:56;;;;;;;9.02;3.92;;;15.00;84.40;;;;;;4996561;28;20498;-72
2023/04/14 11:02:28;;;;;;;13.52;4.30;;;15.00;83.10;;;;;;5013415;28;20501;-72
2023/04/14 11:05:03;;;;;;;9.63;4.00;;;15.00;83.10;;;;;;4979535;28;20049;-76
2023/04/14 11:07:30;;;;;;;6.28;3.20;;;14.90;82.40;;;;;;4996003;28;20458;-76
2023/04/14 11:10:20;;;;;;;8.82;3.30;;;14.70;81.90;;;;;;4996021;28;20042;-76
2023/04/14 11:12:47;;;;;;;10.25;3.20;;;14.60;79.90;;;;;;4995759;28;20056;-75
2023/04/14 11:15:15;;;;;;;4.85;3.15;;;14.50;79.30;;;;;;4995814;28;20129;-75
2023/04/14 11:17:44;;;;;;;6.30;3.65;;;14.70;82.70;;;;;;4995763;28;20041;-76
2023/04/14 11:20:17;;;;;;;11.18;4.13;;;14.80;82.50;;;;;;5013586;28;20073;-76
2023/04/14 11:22:47;;;;;;;8.88;3.40;;;14.90;83.30;;;;;;5013338;28;20133;-76
2023/04/14 11:25:15;;;;;;;8.93;3.45;;;15.20;84.80;;;;;;4995732;28;20092;-76
2023/04/14 11:27:41;;;;;;;8.35;3.75;;;15.20;83.30;;;;;;4995481;28;20041;-73
2023/04/14 11:30:18;;;;;;;8.07;3.33;;;15.30;82.90;;;;;;4995548;28;20042;-73
2023/04/14 11:32:49;;;;;;;6.22;3.05;;;15.30;82.00;;;;;;5013073;28;20096;-72
2023/04/14 11:35:16;;;;;;;5.85;2.30;;;15.30;81.00;;;;;;4979124;28;20385;-70
2023/04/14 11:37:42;;;;;;;5.93;2.92;;;15.80;79.20;;;;;;5012772;28;20087;-69
2023/04/14 11:40:10;;;;;;;6.93;2.90;;;16.20;78.80;;;;;;5006778;28;20033;-70
2023/04/14 11:42:36;;;;;;;9.27;3.05;;;16.20;77.50;;;;;;5021693;28;20041;-69
2023/04/14 11:45:03;;;;;;;9.68;2.92;;;15.90;76.40;;;;;;5032469;28;20179;-70
2023/04/14 11:47:29;;;;;;;5.90;2.33;;;16.00;76.40;;;;;;5014117;28;20056;-69
2023/04/14 11:49:55;;;;;;;8.38;2.20;;;16.00;76.30;;;;;;5014936;28;20128;-70
2023/04/14 11:52:20;;;;;;;5.00;2.15;;;16.00;74.90;;;;;;5026521;28;20183;-71
2023/04/14 11:54:46;;;;;;;15.63;8.30;;;16.00;73.40;;;;;;5032192;28;20038;-68
2023/04/14 11:57:13;;;;;;;7.15;3.33;;;16.10;74.40;;;;;;5032505;28;20155;-74
2023/04/14 11:59:44;;;;;;;5.40;2.88;;;16.10;74.70;;;;;;5014397;28;20041;-74
2023/04/14 12:02:20;;;;;;;6.57;2.22;;;16.00;73.00;;;;;;5032380;28;20049;-73
2023/04/14 12:04:48;;;;;;;9.50;3.08;;;15.70;72.30;;;;;;5014513;28;20045;-73
2023/04/14 12:07:16;;;;;;;8.35;2.78;;;15.50;73.10;;;;;;5014377;28;20049;-74
2023/04/14 12:09:43;;;;;;;4.18;1.58;;;15.40;73.10;;;;;;5014658;28;20049;-74
2023/04/14 12:12:14;;;;;;;6.05;2.20;;;15.20;72.80;;;;;;4998126;28;20448;-73
2023/04/14 12:14:41;;;;;;;6.78;2.30;;;15.10;71.60;;;;;;5014206;28;20144;-73
2023/04/14 12:17:08;;;;;;;7.15;1.88;;;15.10;72.90;;;;;;5014268;28;20045;-74
2023/04/14 12:19:37;;;;;;;6.13;2.13;;;15.00;70.50;;;;;;5032429;28;20037;-74
2023/04/14 12:22:04;;;;;;;7.95;1.90;;;15.00;69.90;;;;;;5014699;28;20037;-74
2023/04/14 12:24:40;;;;;;;4.63;2.00;;;15.10;70.10;;;;;;5014154;28;20048;-74
2023/04/14 12:27:09;;;;;;;7.47;1.73;;;14.90;67.50;;;;;;4997675;28;20040;-74
2023/04/14 12:29:35;;;;;;;6.97;1.95;;;14.80;67.90;;;;;;5014281;28;20045;-74
2023/04/14 12:32:03;;;;;;;5.88;1.83;;;14.90;69.80;;;;;;5014201;28;20041;-74
2023/04/14 12:34:28;;;;;;;5.50;1.70;;;15.00;69.80;;;;;;5014069;28;20120;-74
2023/04/14 12:36:54;;;;;;;7.93;2.42;;;14.90;69.00;;;;;;5014231;28;20461;-74
2023/04/14 12:39:21;;;;;;;7.35;2.10;;;14.80;69.10;;;;;;5014166;28;20087;-74
2023/04/14 12:41:47;;;;;;;7.97;1.70;;;14.80;70.20;;;;;;5014054;28;20045;-74
2023/04/14 12:44:18;;;;;;;7.10;1.98;;;14.90;70.40;;;;;;5014032;28;20044;-74
2023/04/14 12:46:48;;;;;;;5.78;1.75;;;15.00;69.90;;;;;;5013950;28;20084;-74
2023/04/14 12:49:36;;;;;;;6.55;2.47;;;15.10;69.80;;;;;;5013857;28;20045;-74
2023/04/14 12:52:06;;;;;;;6.63;2.00;;;15.30;69.80;;;;;;5013887;28;20049;-74
2023/04/14 12:54:46;;;;;;;5.88;2.38;;;15.30;69.50;;;;;;5013838;28;20524;-74